createdAt,value
2023-01-03T00:00:42.840Z,0.57
2023-01-03T00:03:44.588Z,0.60
2023-01-03T00:06:47.863Z,0.80
2023-01-03T00:09:49.451Z,0.50
2023-01-03T00:12:52.469Z,0.75
2023-01-03T00:15:54.111Z,1.13
2023-01-03T00:18:55.709Z,0.80
2023-01-03T00:21:57.435Z,0.70
2023-01-03T00:24:59.473Z,0.50
2023-01-03T00:28:02.513Z,0.40
2023-01-03T00:31:06.556Z,0.30
2023-01-03T00:34:08.984Z,0.68
2023-01-03T00:37:10.973Z,0.60
2023-01-03T00:40:13.012Z,0.65
2023-01-03T00:43:31.352Z,0.70
2023-01-03T00:46:33.925Z,0.57
2023-01-03T00:49:35.752Z,0.50
2023-01-03T00:52:37.453Z,0.50
2023-01-03T00:55:39.069Z,0.63
2023-01-03T00:58:42.463Z,0.80
2023-01-03T01:01:47.498Z,0.80
2023-01-03T01:04:49.657Z,0.60
2023-01-03T01:07:51.502Z,0.85
2023-01-03T01:11:02.310Z,0.50
2023-01-03T01:14:19.664Z,0.63
2023-01-03T01:17:22.970Z,0.65
2023-01-03T01:20:24.922Z,0.40
2023-01-03T01:23:26.528Z,0.30
2023-01-03T01:26:28.155Z,0.68
2023-01-03T01:29:31.121Z,0.88
2023-01-03T01:32:32.838Z,0.47
2023-01-03T01:35:34.570Z,0.90
2023-01-03T01:38:36.563Z,0.50
2023-01-03T01:41:57.196Z,0.50
2023-01-03T01:45:01.417Z,0.55
2023-01-03T01:48:06.849Z,0.77
2023-01-03T01:51:10.633Z,0.55
2023-01-03T01:54:12.612Z,0.50
2023-01-03T01:57:18.325Z,0.57
2023-01-03T02:00:21.934Z,0.77
2023-01-03T02:03:23.716Z,0.30
2023-01-03T02:06:25.464Z,0.80
2023-01-03T02:09:27.187Z,0.95
2023-01-03T02:12:56.801Z,0.63
2023-01-03T02:16:13.121Z,0.98
2023-01-03T02:19:45.415Z,0.70
2023-01-03T02:23:16.967Z,0.73
2023-01-03T02:26:38.522Z,0.60
2023-01-03T02:29:58.839Z,0.90
2023-01-03T02:33:11.593Z,0.90
2023-01-03T02:36:22.852Z,0.70
2023-01-03T02:39:28.829Z,0.80
2023-01-03T02:43:11.782Z,0.70
2023-01-03T02:46:19.652Z,0.63
2023-01-03T02:49:28.536Z,0.45
2023-01-03T02:52:31.896Z,0.93
2023-01-03T02:55:36.678Z,1.10
2023-01-03T02:58:40.952Z,0.50
2023-01-03T03:01:45.116Z,0.82
2023-01-03T03:04:52.435Z,0.73
2023-01-03T03:07:54.142Z,0.63
2023-01-03T03:11:14.594Z,0.73
2023-01-03T03:14:22.497Z,1.48
2023-01-03T03:17:31.462Z,0.70
2023-01-03T03:20:53.097Z,0.60
2023-01-03T03:24:18.485Z,0.75
2023-01-03T03:27:41.626Z,1.23
2023-01-03T03:30:45.878Z,0.60
2023-01-03T03:33:51.151Z,0.40
2023-01-03T03:36:59.992Z,0.60
2023-01-03T03:40:21.372Z,0.80
2023-01-03T03:43:46.723Z,0.40
2023-01-03T03:46:55.477Z,0.75
2023-01-03T03:50:02.499Z,0.77
2023-01-03T03:53:09.796Z,0.63
2023-01-03T03:56:16.466Z,0.70
2023-01-03T03:59:21.381Z,0.65
2023-01-03T04:02:26.148Z,0.90
2023-01-03T04:05:32.037Z,0.60
2023-01-03T04:08:35.130Z,0.50
2023-01-03T04:11:36.885Z,0.70
2023-01-03T04:14:38.606Z,0.90
2023-01-03T04:17:40.283Z,0.93
2023-01-03T04:20:41.893Z,1.13
2023-01-03T04:23:44.833Z,0.70
2023-01-03T04:26:46.500Z,0.93
2023-01-03T04:29:48.168Z,1.00
2023-01-03T04:32:49.782Z,1.00
2023-01-03T04:35:51.430Z,0.60
2023-01-03T04:38:54.385Z,0.50
2023-01-03T04:41:56.004Z,0.63
2023-01-03T04:44:57.639Z,0.77
2023-01-03T04:48:00.023Z,0.70
2023-01-03T04:51:01.850Z,0.60
2023-01-03T04:54:06.082Z,0.82
2023-01-03T04:57:08.343Z,0.95
2023-01-03T05:00:11.440Z,1.10
2023-01-03T05:03:13.207Z,1.20
2023-01-03T05:06:14.992Z,0.70
2023-01-03T05:09:18.062Z,0.70
2023-01-03T05:12:20.290Z,0.73
2023-01-03T05:15:21.960Z,0.95
2023-01-03T05:18:23.622Z,0.88
2023-01-03T05:21:43.816Z,0.65
2023-01-03T05:25:12.787Z,0.93
2023-01-03T05:28:17.425Z,1.02
2023-01-03T05:34:21.770Z,0.70
2023-01-03T05:37:25.043Z,0.60
2023-01-03T05:40:28.051Z,0.80
2023-01-03T05:43:29.780Z,0.75
2023-01-03T05:46:31.863Z,0.57
2023-01-03T05:49:34.408Z,0.80
2023-01-03T05:52:36.225Z,0.68
2023-01-03T05:55:39.754Z,0.80
2023-01-03T05:58:42.494Z,0.77
2023-01-03T06:01:44.281Z,0.80
2023-01-03T06:04:46.099Z,0.88
2023-01-03T06:07:47.733Z,0.70
2023-01-03T06:10:50.914Z,1.27
2023-01-03T06:13:53.311Z,0.90
2023-01-03T06:17:13.813Z,0.95
2023-01-03T06:20:15.677Z,0.88
2023-01-03T06:23:17.306Z,0.57
2023-01-03T06:26:22.430Z,0.70
2023-01-03T06:32:25.614Z,1.10
2023-01-03T06:35:27.298Z,1.10
2023-01-03T06:38:29.102Z,1.10
2023-01-03T06:41:32.114Z,1.00
2023-01-03T06:44:33.720Z,1.45
2023-01-03T06:47:55.263Z,1.15
2023-01-03T06:51:15.948Z,2.00
2023-01-03T06:54:21.126Z,0.63
2023-01-03T06:57:25.840Z,0.82
2023-01-03T07:00:29.134Z,1.08
2023-01-03T07:03:31.537Z,0.80
2023-01-03T07:06:33.163Z,0.77
2023-01-03T07:09:34.929Z,0.90
2023-01-03T07:12:56.458Z,1.77
2023-01-03T07:15:58.259Z,0.68
2023-01-03T07:19:00.243Z,0.90
2023-01-03T07:22:02.300Z,0.70
2023-01-03T07:25:04.337Z,1.23
2023-01-03T07:28:10.142Z,0.70
2023-01-03T07:31:13.025Z,0.90
2023-01-03T07:34:14.782Z,0.80
2023-01-03T07:37:16.390Z,0.77
2023-01-03T07:40:18.395Z,0.85
2023-01-03T07:43:39.364Z,0.63
2023-01-03T07:46:41.142Z,0.68
2023-01-03T07:49:42.840Z,0.90
2023-01-03T07:52:44.529Z,1.10
2023-01-03T07:55:46.354Z,1.15
2023-01-03T07:58:51.848Z,1.00
2023-01-03T08:01:54.103Z,0.95
2023-01-03T08:04:56.043Z,1.05
2023-01-03T08:07:58.071Z,1.00
2023-01-03T08:11:18.675Z,1.58
2023-01-03T08:14:25.559Z,1.77
2023-01-03T08:17:28.544Z,1.50
2023-01-03T08:20:30.272Z,1.40
2023-01-03T08:23:31.966Z,1.60
2023-01-03T08:26:33.699Z,1.02
2023-01-03T08:29:36.819Z,1.10
2023-01-03T08:32:38.855Z,1.60
2023-01-03T08:35:44.305Z,1.58
2023-01-03T08:38:49.334Z,1.40
2023-01-03T08:41:57.263Z,1.70
2023-01-03T08:45:02.596Z,1.85
2023-01-03T08:48:06.202Z,1.50
2023-01-03T08:51:08.183Z,2.00
2023-01-03T08:54:09.813Z,2.13
2023-01-03T08:57:11.699Z,1.80
2023-01-03T09:00:15.641Z,1.65
2023-01-03T09:03:17.540Z,1.92
2023-01-03T09:06:19.914Z,2.30
2023-01-03T09:09:21.762Z,1.95
2023-01-03T09:12:23.425Z,1.42
2023-01-03T09:15:26.511Z,1.55
2023-01-03T09:18:28.212Z,1.13
2023-01-03T09:21:30.731Z,1.52
2023-01-03T09:24:32.427Z,1.08
2023-01-03T09:27:34.181Z,1.17
2023-01-03T09:30:37.264Z,0.80
2023-01-03T09:33:39.036Z,0.88
2023-01-03T09:36:40.781Z,0.65
2023-01-03T09:39:42.518Z,1.50
2023-01-03T09:43:03.153Z,1.17
2023-01-03T09:46:07.195Z,1.42
2023-01-03T09:49:13.854Z,1.13
2023-01-03T09:52:37.519Z,0.50
2023-01-03T09:56:06.059Z,1.30
2023-01-03T09:59:30.450Z,0.90
2023-01-03T10:03:08.875Z,0.32
2023-01-03T10:06:20.595Z,0.93
2023-01-03T10:09:29.064Z,1.13
2023-01-03T10:12:38.723Z,1.10
2023-01-03T10:15:52.500Z,1.48
2023-01-03T10:19:09.839Z,0.68
2023-01-03T10:25:18.931Z,0.80
2023-01-03T10:28:24.206Z,0.73
2023-01-03T10:31:40.175Z,0.73
2023-01-03T10:34:43.213Z,0.80
2023-01-03T10:37:45.688Z,1.23
2023-01-03T10:40:50.372Z,0.80
2023-01-03T10:44:00.544Z,1.00
2023-01-03T10:47:09.981Z,0.82
2023-01-03T10:50:22.602Z,0.63
2023-01-03T10:53:24.670Z,0.90
2023-01-03T10:56:29.122Z,1.33
2023-01-03T10:59:32.069Z,1.00
2023-01-03T11:02:42.725Z,0.77
2023-01-03T11:05:47.840Z,0.80
2023-01-03T11:09:00.508Z,1.10
2023-01-03T11:12:12.370Z,0.82
2023-01-03T11:15:17.087Z,0.65
2023-01-03T11:18:22.945Z,1.00
2023-01-03T11:21:30.792Z,0.85
2023-01-03T11:24:53.018Z,0.60
2023-01-03T11:28:17.559Z,0.90
2023-01-03T11:31:33.602Z,0.90
2023-01-03T11:35:21.615Z,0.77
2023-01-03T11:38:40.187Z,0.73
2023-01-03T11:42:19.783Z,0.68
2023-01-03T11:45:49.528Z,1.27
2023-01-03T11:49:01.392Z,1.30
2023-01-03T11:52:20.760Z,0.40
2023-01-03T11:55:56.662Z,1.42
2023-01-03T11:59:36.832Z,0.95
2023-01-03T12:02:58.708Z,0.90
2023-01-03T12:06:08.421Z,0.65
2023-01-03T12:09:20.918Z,1.05
2023-01-03T12:12:42.435Z,0.50
2023-01-03T12:15:49.423Z,0.73
2023-01-03T12:18:58.528Z,0.77
2023-01-03T12:22:07.216Z,0.73
2023-01-03T12:25:20.646Z,0.57
2023-01-03T12:28:28.023Z,0.70
2023-01-03T12:31:37.223Z,0.43
2023-01-03T12:34:47.485Z,0.82
2023-01-03T12:37:50.902Z,0.73
2023-01-03T12:40:58.201Z,0.82
2023-01-03T12:44:07.731Z,0.70
2023-01-03T12:47:20.030Z,0.90
2023-01-03T12:50:28.185Z,1.38
2023-01-03T12:53:38.771Z,1.30
2023-01-03T12:56:57.293Z,1.00
2023-01-03T13:00:21.847Z,0.90
2023-01-03T13:03:30.118Z,0.88
2023-01-03T13:06:37.494Z,0.70
2023-01-03T13:09:43.643Z,1.20
2023-01-03T13:12:52.517Z,0.80
2023-01-03T13:15:55.655Z,0.90
2023-01-03T13:19:37.041Z,0.90
2023-01-03T13:22:57.398Z,0.70
2023-01-03T13:26:23.179Z,0.80
2023-01-03T13:29:43.678Z,0.73
2023-01-03T13:32:53.410Z,0.90
2023-01-03T13:35:59.923Z,0.70
2023-01-03T13:39:01.939Z,0.80
2023-01-03T13:42:03.741Z,0.60
2023-01-03T13:45:56.042Z,0.93
2023-01-03T13:49:01.959Z,0.90
2023-01-03T13:52:06.170Z,0.75
2023-01-03T13:55:33.752Z,0.47
2023-01-03T13:58:42.629Z,0.75
2023-01-03T14:02:08.797Z,0.73
2023-01-03T14:05:29.953Z,0.52
2023-01-03T14:08:53.262Z,0.63
2023-01-03T14:12:18.778Z,0.90
2023-01-03T14:15:26.403Z,0.77
2023-01-03T14:18:32.184Z,1.30
2023-01-03T14:21:42.430Z,1.20
2023-01-03T14:24:48.295Z,0.82
2023-01-03T14:27:49.971Z,0.68
2023-01-03T14:31:02.146Z,0.70
2023-01-03T14:34:05.457Z,0.50
2023-01-03T14:37:13.046Z,0.47
2023-01-03T14:40:19.614Z,0.50
2023-01-03T14:43:21.833Z,0.65
2023-01-03T14:46:23.637Z,0.60
2023-01-03T14:49:35.115Z,0.50
2023-01-03T14:52:40.897Z,0.85
2023-01-03T14:55:50.456Z,0.90
2023-01-03T14:58:53.468Z,0.70
2023-01-03T15:01:55.413Z,0.55
2023-01-03T15:04:58.404Z,0.80
2023-01-03T15:08:21.857Z,1.02
2023-01-03T15:11:32.851Z,0.50
2023-01-03T15:14:36.221Z,0.50
2023-01-03T15:17:38.077Z,0.60
2023-01-03T15:20:42.613Z,0.70
2023-01-03T15:23:48.570Z,0.70
2023-01-03T15:26:52.659Z,0.77
2023-01-03T15:29:54.345Z,3.50
2023-01-03T15:32:59.126Z,1.15
2023-01-03T15:36:05.411Z,1.05
2023-01-03T15:39:16.309Z,0.63
2023-01-03T15:42:50.156Z,0.85
2023-01-03T15:46:02.260Z,0.70
2023-01-03T15:49:06.210Z,0.60
2023-01-03T15:52:12.055Z,0.90
2023-01-03T15:55:16.917Z,0.80
2023-01-03T15:58:18.938Z,0.90
2023-01-03T16:01:22.630Z,2.33
2023-01-03T16:04:25.861Z,1.73
2023-01-03T16:07:27.760Z,1.90
2023-01-03T16:10:30.794Z,1.60
2023-01-03T16:13:37.528Z,1.20
2023-01-03T16:16:42.264Z,1.20
2023-01-03T16:19:44.516Z,0.73
2023-01-03T16:22:59.822Z,0.73
2023-01-03T16:26:04.664Z,0.90
2023-01-03T16:29:06.362Z,1.10
2023-01-03T16:32:17.314Z,1.20
2023-01-03T16:35:20.485Z,1.05
2023-01-03T16:38:25.382Z,1.17
2023-01-03T16:41:28.541Z,1.10
2023-01-03T16:44:30.177Z,1.30
2023-01-03T16:47:34.901Z,1.40
2023-01-03T16:50:39.400Z,1.52
2023-01-03T16:53:41.160Z,1.50
2023-01-03T16:56:44.888Z,1.05
2023-01-03T16:59:47.318Z,1.27
2023-01-03T17:02:49.268Z,1.17
2023-01-03T17:05:51.418Z,1.20
2023-01-03T17:08:53.461Z,0.98
2023-01-03T17:11:56.483Z,2.03
2023-01-03T17:14:58.182Z,1.63
2023-01-03T17:17:59.904Z,1.20
2023-01-03T17:21:09.001Z,1.20
2023-01-03T17:24:15.671Z,1.08
2023-01-03T17:27:23.894Z,1.00
2023-01-03T17:30:29.630Z,1.05
2023-01-03T17:33:34.251Z,1.13
2023-01-03T17:36:36.661Z,1.10
2023-01-03T17:39:38.454Z,1.20
2023-01-03T17:42:41.541Z,1.38
2023-01-03T17:46:01.989Z,1.40
2023-01-03T17:49:22.890Z,1.70
2023-01-03T17:52:32.063Z,1.40
2023-01-03T17:55:33.921Z,1.10
2023-01-03T17:58:38.742Z,1.58
2023-01-03T18:01:41.743Z,1.30
2023-01-03T18:05:14.097Z,1.45
2023-01-03T18:08:05.531Z,1.27
2023-01-03T18:11:08.259Z,1.70
2023-01-03T18:14:14.475Z,1.88
2023-01-03T18:17:27.534Z,2.00
2023-01-03T18:20:31.056Z,1.77
2023-01-03T18:23:36.319Z,2.03
2023-01-03T18:26:40.986Z,2.42
2023-01-03T18:29:44.168Z,1.38
2023-01-03T18:32:48.126Z,1.65
2023-01-03T18:35:50.237Z,1.80
2023-01-03T18:39:02.230Z,1.40
2023-01-03T18:42:22.785Z,1.30
2023-01-03T18:45:25.765Z,1.30
2023-01-03T18:48:27.485Z,1.50
2023-01-03T18:51:29.434Z,1.70
2023-01-03T18:54:35.020Z,1.55
2023-01-03T18:57:36.898Z,1.45
2023-01-03T19:00:39.890Z,1.13
2023-01-03T19:03:42.814Z,1.60
2023-01-03T19:06:47.418Z,2.97
2023-01-03T19:09:49.719Z,4.65
2023-01-03T19:12:53.627Z,1.67
2023-01-03T19:15:57.040Z,1.30
2023-01-03T19:18:58.769Z,1.20
2023-01-03T19:22:00.492Z,1.33
2023-01-03T19:25:05.831Z,1.50
2023-01-03T19:28:11.627Z,1.67
2023-01-03T19:31:14.687Z,1.63
2023-01-03T19:34:17.801Z,3.60
2023-01-03T19:37:19.486Z,2.47
2023-01-03T19:40:24.856Z,1.50
2023-01-03T19:43:26.529Z,1.50
2023-01-03T19:46:29.622Z,1.63
2023-01-03T19:49:31.227Z,1.40
2023-01-03T19:52:32.993Z,1.33
2023-01-03T19:55:38.629Z,1.45
2023-01-03T19:58:42.294Z,3.05
2023-01-03T20:02:22.765Z,2.60
2023-01-03T20:05:14.450Z,2.25
2023-01-03T20:08:16.176Z,2.60
2023-01-03T20:11:20.692Z,1.92
2023-01-03T20:14:23.402Z,1.08
2023-01-03T20:17:26.984Z,1.13
2023-01-03T20:20:30.906Z,1.10
2023-01-03T20:23:36.300Z,0.80
2023-01-03T20:26:40.072Z,3.25
2023-01-03T20:29:42.133Z,2.13
2023-01-03T20:32:45.144Z,2.40
2023-01-03T20:39:22.226Z,1.58
2023-01-03T20:42:24.909Z,3.25
2023-01-03T20:45:26.657Z,1.73
2023-01-03T20:48:32.721Z,0.95
2023-01-03T20:51:34.994Z,1.40
2023-01-03T20:54:36.738Z,1.40
2023-01-03T20:57:38.521Z,1.98
2023-01-03T21:00:40.688Z,1.10
2023-01-03T21:03:43.842Z,0.95
2023-01-03T21:06:46.495Z,0.70
2023-01-03T21:09:48.252Z,0.80
2023-01-03T21:12:49.962Z,0.95
2023-01-03T21:15:51.857Z,1.10
2023-01-03T21:18:55.739Z,0.90
2023-01-03T21:21:59.127Z,0.90
2023-01-03T21:25:01.956Z,1.30
2023-01-03T21:28:04.063Z,1.08
2023-01-03T21:31:05.873Z,0.88
2023-01-03T21:34:16.279Z,0.95
2023-01-03T21:37:18.106Z,1.00
2023-01-03T21:40:21.316Z,0.77
2023-01-03T21:43:22.959Z,0.90
2023-01-03T21:46:26.292Z,0.80
2023-01-03T21:49:29.464Z,1.38
2023-01-03T21:52:31.108Z,1.50
2023-01-03T21:55:33.586Z,1.10
2023-01-03T21:58:35.596Z,1.83
2023-01-03T22:01:57.402Z,1.50
2023-01-03T22:05:00.446Z,1.00
2023-01-03T22:08:03.075Z,0.77
2023-01-03T22:11:05.294Z,1.10
2023-01-03T22:14:06.981Z,1.00
2023-01-03T22:17:08.629Z,1.10
2023-01-03T22:20:16.414Z,0.60
2023-01-03T22:23:19.113Z,1.10
2023-01-03T22:26:20.904Z,0.28
2023-01-03T22:29:22.585Z,1.17
2023-01-03T22:32:24.766Z,0.85
2023-01-03T22:35:27.875Z,0.88
2023-01-03T22:38:29.520Z,0.57
2023-01-03T22:41:31.274Z,0.80
2023-01-03T22:44:32.959Z,0.50
2023-01-03T22:47:34.859Z,0.75
2023-01-03T22:50:39.498Z,0.88
2023-01-03T22:53:42.634Z,1.00
2023-01-03T22:56:44.541Z,0.65
2023-01-03T22:59:46.234Z,0.85
2023-01-03T23:02:48.097Z,0.93
2023-01-03T23:05:51.137Z,0.70
2023-01-03T23:08:54.999Z,0.60
2023-01-03T23:12:15.103Z,0.60
2023-01-03T23:15:16.818Z,0.52
2023-01-03T23:18:18.457Z,0.95
2023-01-03T23:21:21.444Z,0.43
2023-01-03T23:24:24.941Z,0.65
2023-01-03T23:27:27.274Z,0.60
2023-01-03T23:30:29.037Z,0.55
2023-01-03T23:33:30.799Z,0.70
2023-01-03T23:36:34.143Z,1.00
2023-01-03T23:39:35.772Z,0.70
2023-01-03T23:42:37.535Z,0.68
2023-01-03T23:45:39.260Z,0.70
2023-01-03T23:48:41.040Z,0.30
2023-01-03T23:51:44.113Z,0.55
2023-01-03T23:54:45.797Z,0.38
2023-01-03T23:57:50.083Z,0.88
